sensor_id;sensor_type;location;lat;lon;timestamp;temperature;humidity
17887;DHT22;9069;52.044;7.472;2023-04-25T00:01:16;11.60;92.70
17887;DHT22;9069;52.044;7.472;2023-04-25T00:03:43;11.60;93.10
17887;DHT22;9069;52.044;7.472;2023-04-25T00:06:10;11.60;92.80
17887;DHT22;9069;52.044;7.472;2023-04-25T00:08:37;11.60;93.00
17887;DHT22;9069;52.044;7.472;2023-04-25T00:11:04;11.60;93.00
17887;DHT22;9069;52.044;7.472;2023-04-25T00:13:31;11.60;93.10
17887;DHT22;9069;52.044;7.472;2023-04-25T00:15:57;11.60;93.20
17887;DHT22;9069;52.044;7.472;2023-04-25T00:18:24;11.60;93.30
17887;DHT22;9069;52.044;7.472;2023-04-25T00:20:51;11.60;93.40
17887;DHT22;9069;52.044;7.472;2023-04-25T00:23:18;11.60;93.40
17887;DHT22;9069;52.044;7.472;2023-04-25T00:25:45;11.60;93.50
17887;DHT22;9069;52.044;7.472;2023-04-25T00:28:13;11.60;93.60
17887;DHT22;9069;52.044;7.472;2023-04-25T00:30:40;11.60;93.70
17887;DHT22;9069;52.044;7.472;2023-04-25T00:33:08;11.60;93.80
17887;DHT22;9069;52.044;7.472;2023-04-25T00:35:35;11.60;93.80
17887;DHT22;9069;52.044;7.472;2023-04-25T00:38:02;11.60;93.90
17887;DHT22;9069;52.044;7.472;2023-04-25T00:40:29;11.60;94.00
17887;DHT22;9069;52.044;7.472;2023-04-25T00:42:55;11.60;94.00
17887;DHT22;9069;52.044;7.472;2023-04-25T00:45:27;11.60;94.10
17887;DHT22;9069;52.044;7.472;2023-04-25T00:47:54;11.70;94.20
17887;DHT22;9069;52.044;7.472;2023-04-25T00:50:21;11.60;94.20
17887;DHT22;9069;52.044;7.472;2023-04-25T00:52:48;11.70;94.20
17887;DHT22;9069;52.044;7.472;2023-04-25T00:55:15;11.70;94.30
17887;DHT22;9069;52.044;7.472;2023-04-25T00:57:42;11.70;94.30
17887;DHT22;9069;52.044;7.472;2023-04-25T01:00:10;11.70;94.40
17887;DHT22;9069;52.044;7.472;2023-04-25T01:02:37;11.70;94.50
17887;DHT22;9069;52.044;7.472;2023-04-25T01:05:04;11.70;94.40
17887;DHT22;9069;52.044;7.472;2023-04-25T01:07:31;11.70;94.40
17887;DHT22;9069;52.044;7.472;2023-04-25T01:09:58;11.70;94.50
17887;DHT22;9069;52.044;7.472;2023-04-25T01:12:25;11.70;94.90
17887;DHT22;9069;52.044;7.472;2023-04-25T01:14:51;11.70;94.60
17887;DHT22;9069;52.044;7.472;2023-04-25T01:17:19;11.70;94.60
17887;DHT22;9069;52.044;7.472;2023-04-25T01:19:46;11.70;94.50
17887;DHT22;9069;52.044;7.472;2023-04-25T01:22:15;11.80;94.50
17887;DHT22;9069;52.044;7.472;2023-04-25T01:24:41;11.80;94.50
17887;DHT22;9069;52.044;7.472;2023-04-25T01:27:09;11.70;94.40
17887;DHT22;9069;52.044;7.472;2023-04-25T01:29:36;11.70;94.50
17887;DHT22;9069;52.044;7.472;2023-04-25T01:32:04;11.70;94.50
17887;DHT22;9069;52.044;7.472;2023-04-25T01:34:32;11.70;94.50
17887;DHT22;9069;52.044;7.472;2023-04-25T01:37:00;11.70;94.50
17887;DHT22;9069;52.044;7.472;2023-04-25T01:39:28;11.70;94.90
17887;DHT22;9069;52.044;7.472;2023-04-25T01:41:55;11.70;94.50
17887;DHT22;9069;52.044;7.472;2023-04-25T01:44:23;11.70;94.50
17887;DHT22;9069;52.044;7.472;2023-04-25T01:46:50;11.70;94.50
17887;DHT22;9069;52.044;7.472;2023-04-25T01:49:17;11.70;94.50
17887;DHT22;9069;52.044;7.472;2023-04-25T01:51:44;11.70;94.60
17887;DHT22;9069;52.044;7.472;2023-04-25T01:54:11;11.70;94.50
17887;DHT22;9069;52.044;7.472;2023-04-25T01:56:39;11.70;94.50
17887;DHT22;9069;52.044;7.472;2023-04-25T01:59:09;11.70;94.50
17887;DHT22;9069;52.044;7.472;2023-04-25T02:01:58;11.70;94.50
17887;DHT22;9069;52.044;7.472;2023-04-25T02:04:31;11.70;94.40
17887;DHT22;9069;52.044;7.472;2023-04-25T02:06:58;11.70;94.30
17887;DHT22;9069;52.044;7.472;2023-04-25T02:09:34;11.70;94.30
17887;DHT22;9069;52.044;7.472;2023-04-25T02:12:05;11.60;94.20
17887;DHT22;9069;52.044;7.472;2023-04-25T02:14:36;11.60;94.10
17887;DHT22;9069;52.044;7.472;2023-04-25T02:17:13;11.70;94.10
17887;DHT22;9069;52.044;7.472;2023-04-25T02:19:40;11.60;94.00
17887;DHT22;9069;52.044;7.472;2023-04-25T02:22:07;11.60;94.00
17887;DHT22;9069;52.044;7.472;2023-04-25T02:24:33;11.60;94.00
17887;DHT22;9069;52.044;7.472;2023-04-25T02:27:01;11.60;93.90
17887;DHT22;9069;52.044;7.472;2023-04-25T02:29:28;11.60;93.90
17887;DHT22;9069;52.044;7.472;2023-04-25T02:31:55;11.60;93.80
17887;DHT22;9069;52.044;7.472;2023-04-25T02:34:22;11.60;93.80
17887;DHT22;9069;52.044;7.472;2023-04-25T02:36:49;11.60;93.70
17887;DHT22;9069;52.044;7.472;2023-04-25T02:39:17;11.60;93.70
17887;DHT22;9069;52.044;7.472;2023-04-25T02:41:44;11.60;93.60
17887;DHT22;9069;52.044;7.472;2023-04-25T02:44:11;11.60;93.60
17887;DHT22;9069;52.044;7.472;2023-04-25T02:46:37;11.50;93.50
17887;DHT22;9069;52.044;7.472;2023-04-25T02:49:06;11.50;93.50
17887;DHT22;9069;52.044;7.472;2023-04-25T02:51:33;11.50;93.60
17887;DHT22;9069;52.044;7.472;2023-04-25T02:54:00;11.50;93.60
17887;DHT22;9069;52.044;7.472;2023-04-25T02:56:27;11.50;93.50
17887;DHT22;9069;52.044;7.472;2023-04-25T02:58:54;11.40;93.50
17887;DHT22;9069;52.044;7.472;2023-04-25T03:01:21;11.50;93.50
17887;DHT22;9069;52.044;7.472;2023-04-25T03:03:48;11.40;93.50
17887;DHT22;9069;52.044;7.472;2023-04-25T03:06:15;11.40;93.50
17887;DHT22;9069;52.044;7.472;2023-04-25T03:08:42;11.40;93.50
17887;DHT22;9069;52.044;7.472;2023-04-25T03:11:10;11.40;93.50
17887;DHT22;9069;52.044;7.472;2023-04-25T03:13:37;11.40;93.50
17887;DHT22;9069;52.044;7.472;2023-04-25T03:16:04;11.40;93.50
17887;DHT22;9069;52.044;7.472;2023-04-25T03:18:31;11.40;93.50
17887;DHT22;9069;52.044;7.472;2023-04-25T03:20:58;11.30;93.50
17887;DHT22;9069;52.044;7.472;2023-04-25T03:23:25;11.30;93.50
17887;DHT22;9069;52.044;7.472;2023-04-25T03:25:52;11.30;93.50
17887;DHT22;9069;52.044;7.472;2023-04-25T03:28:19;11.30;93.60
17887;DHT22;9069;52.044;7.472;2023-04-25T03:30:47;11.30;93.60
17887;DHT22;9069;52.044;7.472;2023-04-25T03:33:13;11.30;93.50
17887;DHT22;9069;52.044;7.472;2023-04-25T03:35:40;11.30;93.50
17887;DHT22;9069;52.044;7.472;2023-04-25T03:38:07;11.30;93.60
17887;DHT22;9069;52.044;7.472;2023-04-25T03:40:38;11.30;93.60
17887;DHT22;9069;52.044;7.472;2023-04-25T03:43:10;11.30;93.60
17887;DHT22;9069;52.044;7.472;2023-04-25T03:45:42;11.30;93.60
17887;DHT22;9069;52.044;7.472;2023-04-25T03:48:09;11.20;93.60
17887;DHT22;9069;52.044;7.472;2023-04-25T03:50:36;11.30;93.50
17887;DHT22;9069;52.044;7.472;2023-04-25T03:53:03;11.20;93.50
17887;DHT22;9069;52.044;7.472;2023-04-25T03:55:43;11.20;93.50
17887;DHT22;9069;52.044;7.472;2023-04-25T03:58:10;11.20;93.40
17887;DHT22;9069;52.044;7.472;2023-04-25T04:00:37;11.20;93.40
17887;DHT22;9069;52.044;7.472;2023-04-25T04:03:04;11.20;93.40
17887;DHT22;9069;52.044;7.472;2023-04-25T04:05:31;11.20;93.40
17887;DHT22;9069;52.044;7.472;2023-04-25T04:07:59;11.20;93.30
17887;DHT22;9069;52.044;7.472;2023-04-25T04:10:26;11.10;93.30
17887;DHT22;9069;52.044;7.472;2023-04-25T04:12:54;11.20;93.30
17887;DHT22;9069;52.044;7.472;2023-04-25T04:15:21;11.20;93.20
17887;DHT22;9069;52.044;7.472;2023-04-25T04:17:48;11.20;93.20
17887;DHT22;9069;52.044;7.472;2023-04-25T04:20:17;11.10;93.20
17887;DHT22;9069;52.044;7.472;2023-04-25T04:22:44;11.10;93.20
17887;DHT22;9069;52.044;7.472;2023-04-25T04:25:13;11.10;93.10
17887;DHT22;9069;52.044;7.472;2023-04-25T04:28:03;11.10;93.10
17887;DHT22;9069;52.044;7.472;2023-04-25T04:30:52;11.10;93.10
17887;DHT22;9069;52.044;7.472;2023-04-25T04:33:19;11.10;93.10
17887;DHT22;9069;52.044;7.472;2023-04-25T04:35:50;11.10;93.00
17887;DHT22;9069;52.044;7.472;2023-04-25T04:38:18;11.10;93.00
17887;DHT22;9069;52.044;7.472;2023-04-25T04:40:46;11.20;93.00
17887;DHT22;9069;52.044;7.472;2023-04-25T04:43:25;11.00;93.00
17887;DHT22;9069;52.044;7.472;2023-04-25T04:46:05;11.10;93.00
17887;DHT22;9069;52.044;7.472;2023-04-25T04:48:32;11.00;93.00
17887;DHT22;9069;52.044;7.472;2023-04-25T04:51:17;11.00;93.00
17887;DHT22;9069;52.044;7.472;2023-04-25T04:54:10;11.00;93.00
17887;DHT22;9069;52.044;7.472;2023-04-25T04:56:49;11.00;93.00
17887;DHT22;9069;52.044;7.472;2023-04-25T04:59:40;11.00;93.00
17887;DHT22;9069;52.044;7.472;2023-04-25T05:02:20;11.00;93.00
17887;DHT22;9069;52.044;7.472;2023-04-25T05:05:22;11.00;93.10
17887;DHT22;9069;52.044;7.472;2023-04-25T05:08:10;11.00;93.10
17887;DHT22;9069;52.044;7.472;2023-04-25T05:11:00;11.00;93.10
17887;DHT22;9069;52.044;7.472;2023-04-25T05:13:52;11.00;93.20
17887;DHT22;9069;52.044;7.472;2023-04-25T05:16:54;11.00;93.20
17887;DHT22;9069;52.044;7.472;2023-04-25T05:19:41;11.10;93.20
17887;DHT22;9069;52.044;7.472;2023-04-25T05:22:33;11.10;93.20
17887;DHT22;9069;52.044;7.472;2023-04-25T05:25:13;11.10;93.30
17887;DHT22;9069;52.044;7.472;2023-04-25T05:27:51;11.10;93.30
17887;DHT22;9069;52.044;7.472;2023-04-25T05:30:48;11.10;93.30
17887;DHT22;9069;52.044;7.472;2023-04-25T05:33:27;11.10;93.30
17887;DHT22;9069;52.044;7.472;2023-04-25T05:35:54;11.10;93.10
17887;DHT22;9069;52.044;7.472;2023-04-25T05:38:22;11.20;93.10
17887;DHT22;9069;52.044;7.472;2023-04-25T05:41:07;11.20;93.00
17887;DHT22;9069;52.044;7.472;2023-04-25T05:43:47;11.20;92.80
17887;DHT22;9069;52.044;7.472;2023-04-25T05:46:31;11.20;92.70
17887;DHT22;9069;52.044;7.472;2023-04-25T05:49:16;11.20;92.60
17887;DHT22;9069;52.044;7.472;2023-04-25T05:52:03;11.30;92.50
17887;DHT22;9069;52.044;7.472;2023-04-25T05:54:41;11.30;92.40
17887;DHT22;9069;52.044;7.472;2023-04-25T05:57:08;11.30;92.30
17887;DHT22;9069;52.044;7.472;2023-04-25T05:59:35;11.30;92.20
17887;DHT22;9069;52.044;7.472;2023-04-25T06:02:02;11.40;92.20
17887;DHT22;9069;52.044;7.472;2023-04-25T06:04:32;11.40;92.10
17887;DHT22;9069;52.044;7.472;2023-04-25T06:07:00;11.40;92.10
17887;DHT22;9069;52.044;7.472;2023-04-25T06:09:26;11.40;92.00
17887;DHT22;9069;52.044;7.472;2023-04-25T06:11:53;11.50;91.90
17887;DHT22;9069;52.044;7.472;2023-04-25T06:14:20;11.50;92.30
17887;DHT22;9069;52.044;7.472;2023-04-25T06:16:49;11.50;91.80
17887;DHT22;9069;52.044;7.472;2023-04-25T06:19:15;11.60;91.70
17887;DHT22;9069;52.044;7.472;2023-04-25T06:21:44;11.60;91.90
17887;DHT22;9069;52.044;7.472;2023-04-25T06:24:10;11.60;91.30
17887;DHT22;9069;52.044;7.472;2023-04-25T06:26:38;11.70;91.40
17887;DHT22;9069;52.044;7.472;2023-04-25T06:29:05;11.70;91.30
17887;DHT22;9069;52.044;7.472;2023-04-25T06:31:32;11.70;91.20
17887;DHT22;9069;52.044;7.472;2023-04-25T06:34:00;11.80;91.20
17887;DHT22;9069;52.044;7.472;2023-04-25T06:36:28;11.80;91.30
17887;DHT22;9069;52.044;7.472;2023-04-25T06:39:01;11.90;91.30
17887;DHT22;9069;52.044;7.472;2023-04-25T06:41:28;11.90;91.30
17887;DHT22;9069;52.044;7.472;2023-04-25T06:44:00;12.00;91.50
17887;DHT22;9069;52.044;7.472;2023-04-25T06:46:48;12.10;91.50
17887;DHT22;9069;52.044;7.472;2023-04-25T06:49:15;12.20;91.60
17887;DHT22;9069;52.044;7.472;2023-04-25T06:51:42;12.20;91.70
17887;DHT22;9069;52.044;7.472;2023-04-25T06:54:09;12.30;91.80
17887;DHT22;9069;52.044;7.472;2023-04-25T06:56:44;12.40;91.50
17887;DHT22;9069;52.044;7.472;2023-04-25T06:59:13;12.40;91.40
17887;DHT22;9069;52.044;7.472;2023-04-25T07:01:41;12.50;91.30
17887;DHT22;9069;52.044;7.472;2023-04-25T07:04:13;12.50;91.10
17887;DHT22;9069;52.044;7.472;2023-04-25T07:06:47;12.60;90.70
17887;DHT22;9069;52.044;7.472;2023-04-25T07:09:17;12.70;90.30
17887;DHT22;9069;52.044;7.472;2023-04-25T07:11:46;12.70;90.00
17887;DHT22;9069;52.044;7.472;2023-04-25T07:14:13;12.80;90.10
17887;DHT22;9069;52.044;7.472;2023-04-25T07:16:40;12.80;89.00
17887;DHT22;9069;52.044;7.472;2023-04-25T07:19:07;12.90;88.40
17887;DHT22;9069;52.044;7.472;2023-04-25T07:21:35;12.90;87.80
17887;DHT22;9069;52.044;7.472;2023-04-25T07:24:03;13.00;87.60
17887;DHT22;9069;52.044;7.472;2023-04-25T07:26:34;13.00;87.40
17887;DHT22;9069;52.044;7.472;2023-04-25T07:29:19;13.10;87.80
17887;DHT22;9069;52.044;7.472;2023-04-25T07:31:46;13.20;87.90
17887;DHT22;9069;52.044;7.472;2023-04-25T07:34:13;13.20;87.90
17887;DHT22;9069;52.044;7.472;2023-04-25T07:36:39;13.40;89.10
17887;DHT22;9069;52.044;7.472;2023-04-25T07:39:07;13.50;89.30
17887;DHT22;9069;52.044;7.472;2023-04-25T07:41:35;13.70;89.80
17887;DHT22;9069;52.044;7.472;2023-04-25T07:44:03;14.00;90.40
17887;DHT22;9069;52.044;7.472;2023-04-25T07:46:34;14.20;90.40
17887;DHT22;9069;52.044;7.472;2023-04-25T07:49:01;14.50;90.10
17887;DHT22;9069;52.044;7.472;2023-04-25T07:51:29;14.70;89.30
17887;DHT22;9069;52.044;7.472;2023-04-25T07:53:59;14.90;89.70
17887;DHT22;9069;52.044;7.472;2023-04-25T07:56:27;15.20;88.60
17887;DHT22;9069;52.044;7.472;2023-04-25T07:59:04;15.40;87.20
17887;DHT22;9069;52.044;7.472;2023-04-25T08:01:33;15.60;84.70
17887;DHT22;9069;52.044;7.472;2023-04-25T08:04:03;15.80;84.20
17887;DHT22;9069;52.044;7.472;2023-04-25T08:06:49;16.10;83.50
17887;DHT22;9069;52.044;7.472;2023-04-25T08:09:21;16.30;81.30
17887;DHT22;9069;52.044;7.472;2023-04-25T08:11:48;16.40;78.80
17887;DHT22;9069;52.044;7.472;2023-04-25T08:14:18;16.50;76.60
17887;DHT22;9069;52.044;7.472;2023-04-25T08:16:47;16.60;75.20
17887;DHT22;9069;52.044;7.472;2023-04-25T08:19:14;16.60;74.20
17887;DHT22;9069;52.044;7.472;2023-04-25T08:21:41;16.50;74.50
17887;DHT22;9069;52.044;7.472;2023-04-25T08:24:13;16.70;75.20
17887;DHT22;9069;52.044;7.472;2023-04-25T08:26:40;16.70;76.60
17887;DHT22;9069;52.044;7.472;2023-04-25T08:29:09;16.90;76.50
17887;DHT22;9069;52.044;7.472;2023-04-25T08:31:39;17.10;77.00
17887;DHT22;9069;52.044;7.472;2023-04-25T08:34:07;17.50;77.00
17887;DHT22;9069;52.044;7.472;2023-04-25T08:36:40;17.80;75.60
17887;DHT22;9069;52.044;7.472;2023-04-25T08:39:33;18.20;74.90
17887;DHT22;9069;52.044;7.472;2023-04-25T08:42:18;18.70;74.30
17887;DHT22;9069;52.044;7.472;2023-04-25T08:44:47;19.00;72.30
17887;DHT22;9069;52.044;7.472;2023-04-25T08:47:15;19.20;69.80
17887;DHT22;9069;52.044;7.472;2023-04-25T08:49:50;19.40;68.80
17887;DHT22;9069;52.044;7.472;2023-04-25T08:52:23;19.50;67.00
17887;DHT22;9069;52.044;7.472;2023-04-25T08:54:52;19.50;65.80
17887;DHT22;9069;52.044;7.472;2023-04-25T08:57:21;19.50;64.90
17887;DHT22;9069;52.044;7.472;2023-04-25T08:59:49;19.40;64.00
17887;DHT22;9069;52.044;7.472;2023-04-25T09:02:17;19.30;63.50
17887;DHT22;9069;52.044;7.472;2023-04-25T09:04:48;19.10;62.80
17887;DHT22;9069;52.044;7.472;2023-04-25T09:07:16;18.90;62.20
17887;DHT22;9069;52.044;7.472;2023-04-25T09:09:45;18.70;62.60
17887;DHT22;9069;52.044;7.472;2023-04-25T09:12:17;18.60;62.70
17887;DHT22;9069;52.044;7.472;2023-04-25T09:15:02;18.50;62.60
17887;DHT22;9069;52.044;7.472;2023-04-25T09:17:44;18.50;61.40
17887;DHT22;9069;52.044;7.472;2023-04-25T09:20:14;18.50;63.60
17887;DHT22;9069;52.044;7.472;2023-04-25T09:22:41;18.50;63.10
17887;DHT22;9069;52.044;7.472;2023-04-25T09:25:10;18.60;63.10
17887;DHT22;9069;52.044;7.472;2023-04-25T09:27:50;18.70;62.90
17887;DHT22;9069;52.044;7.472;2023-04-25T09:30:30;18.70;61.30
17887;DHT22;9069;52.044;7.472;2023-04-25T09:33:11;18.70;61.20
17887;DHT22;9069;52.044;7.472;2023-04-25T09:35:45;18.70;61.40
17887;DHT22;9069;52.044;7.472;2023-04-25T09:38:25;18.70;60.50
17887;DHT22;9069;52.044;7.472;2023-04-25T09:40:54;18.60;60.80
17887;DHT22;9069;52.044;7.472;2023-04-25T09:43:31;18.60;60.40
17887;DHT22;9069;52.044;7.472;2023-04-25T09:45:57;18.50;60.50
17887;DHT22;9069;52.044;7.472;2023-04-25T09:48:28;18.50;60.50
17887;DHT22;9069;52.044;7.472;2023-04-25T09:53:37;18.50;60.10
17887;DHT22;9069;52.044;7.472;2023-04-25T09:56:14;18.40;60.60
17887;DHT22;9069;52.044;7.472;2023-04-25T09:58:41;18.50;60.90
17887;DHT22;9069;52.044;7.472;2023-04-25T10:01:10;18.50;60.70
17887;DHT22;9069;52.044;7.472;2023-04-25T10:03:50;18.60;60.50
17887;DHT22;9069;52.044;7.472;2023-04-25T10:06:37;18.70;60.00
17887;DHT22;9069;52.044;7.472;2023-04-25T10:09:04;18.70;59.40
17887;DHT22;9069;52.044;7.472;2023-04-25T10:11:34;18.70;59.20
17887;DHT22;9069;52.044;7.472;2023-04-25T10:14:01;18.60;58.80
17887;DHT22;9069;52.044;7.472;2023-04-25T10:16:28;18.60;58.60
17887;DHT22;9069;52.044;7.472;2023-04-25T10:18:55;18.50;58.70
17887;DHT22;9069;52.044;7.472;2023-04-25T10:21:23;18.50;59.00
17887;DHT22;9069;52.044;7.472;2023-04-25T10:23:51;18.60;59.60
17887;DHT22;9069;52.044;7.472;2023-04-25T10:26:18;18.60;59.80
17887;DHT22;9069;52.044;7.472;2023-04-25T10:28:57;18.80;59.30
17887;DHT22;9069;52.044;7.472;2023-04-25T10:31:24;18.90;57.40
17887;DHT22;9069;52.044;7.472;2023-04-25T10:33:51;18.90;57.90
17887;DHT22;9069;52.044;7.472;2023-04-25T10:36:21;18.90;57.30
17887;DHT22;9069;52.044;7.472;2023-04-25T10:38:49;18.80;56.80
17887;DHT22;9069;52.044;7.472;2023-04-25T10:41:20;18.60;56.80
17887;DHT22;9069;52.044;7.472;2023-04-25T10:43:49;18.40;57.00
17887;DHT22;9069;52.044;7.472;2023-04-25T10:46:24;18.30;57.30
17887;DHT22;9069;52.044;7.472;2023-04-25T10:48:56;18.00;57.00
17887;DHT22;9069;52.044;7.472;2023-04-25T10:51:31;17.80;57.30
17887;DHT22;9069;52.044;7.472;2023-04-25T10:54:22;17.60;57.50
17887;DHT22;9069;52.044;7.472;2023-04-25T10:56:48;17.50;57.70
17887;DHT22;9069;52.044;7.472;2023-04-25T10:59:18;17.20;57.50
17887;DHT22;9069;52.044;7.472;2023-04-25T11:01:51;17.10;57.60
17887;DHT22;9069;52.044;7.472;2023-04-25T11:04:23;16.90;57.50
17887;DHT22;9069;52.044;7.472;2023-04-25T11:07:17;16.70;58.00
17887;DHT22;9069;52.044;7.472;2023-04-25T11:09:49;16.50;58.10
17887;DHT22;9069;52.044;7.472;2023-04-25T11:12:16;16.40;58.80
17887;DHT22;9069;52.044;7.472;2023-04-25T11:14:44;16.30;59.10
17887;DHT22;9069;52.044;7.472;2023-04-25T11:17:10;16.20;59.30
17887;DHT22;9069;52.044;7.472;2023-04-25T11:19:37;16.10;59.70
17887;DHT22;9069;52.044;7.472;2023-04-25T11:22:04;16.00;60.10
17887;DHT22;9069;52.044;7.472;2023-04-25T11:24:34;15.90;60.00
17887;DHT22;9069;52.044;7.472;2023-04-25T11:27:02;15.80;59.70
17887;DHT22;9069;52.044;7.472;2023-04-25T11:29:31;15.70;59.60
17887;DHT22;9069;52.044;7.472;2023-04-25T11:31:58;15.60;59.50
17887;DHT22;9069;52.044;7.472;2023-04-25T11:34:27;15.50;59.90
17887;DHT22;9069;52.044;7.472;2023-04-25T11:36:57;15.50;60.20
17887;DHT22;9069;52.044;7.472;2023-04-25T11:39:25;15.50;60.10
17887;DHT22;9069;52.044;7.472;2023-04-25T11:41:53;15.50;60.00
17887;DHT22;9069;52.044;7.472;2023-04-25T11:44:20;15.60;59.80
17887;DHT22;9069;52.044;7.472;2023-04-25T11:46:48;15.60;59.50
17887;DHT22;9069;52.044;7.472;2023-04-25T11:49:15;15.60;59.60
17887;DHT22;9069;52.044;7.472;2023-04-25T11:51:45;15.60;59.30
17887;DHT22;9069;52.044;7.472;2023-04-25T11:54:13;15.70;59.20
17887;DHT22;9069;52.044;7.472;2023-04-25T11:56:44;15.70;59.30
17887;DHT22;9069;52.044;7.472;2023-04-25T11:59:12;15.70;58.90
17887;DHT22;9069;52.044;7.472;2023-04-25T12:01:41;15.70;59.10
17887;DHT22;9069;52.044;7.472;2023-04-25T12:04:15;15.70;59.30
17887;DHT22;9069;52.044;7.472;2023-04-25T12:06:44;15.70;59.60
17887;DHT22;9069;52.044;7.472;2023-04-25T12:09:18;15.70;59.80
17887;DHT22;9069;52.044;7.472;2023-04-25T12:11:52;15.70;60.00
17887;DHT22;9069;52.044;7.472;2023-04-25T12:14:24;15.70;59.70
17887;DHT22;9069;52.044;7.472;2023-04-25T12:16:55;15.70;59.70
17887;DHT22;9069;52.044;7.472;2023-04-25T12:19:22;15.80;60.00
17887;DHT22;9069;52.044;7.472;2023-04-25T12:21:49;15.80;60.20
17887;DHT22;9069;52.044;7.472;2023-04-25T12:24:26;15.80;60.50
17887;DHT22;9069;52.044;7.472;2023-04-25T12:27:01;15.80;61.00
17887;DHT22;9069;52.044;7.472;2023-04-25T12:29:31;15.80;61.60
17887;DHT22;9069;52.044;7.472;2023-04-25T12:32:13;15.80;61.60
17887;DHT22;9069;52.044;7.472;2023-04-25T12:34:40;15.90;61.90
17887;DHT22;9069;52.044;7.472;2023-04-25T12:37:07;15.80;62.30
17887;DHT22;9069;52.044;7.472;2023-04-25T12:39:34;15.80;62.80
17887;DHT22;9069;52.044;7.472;2023-04-25T12:42:00;15.80;62.70
17887;DHT22;9069;52.044;7.472;2023-04-25T12:44:27;15.70;62.40
17887;DHT22;9069;52.044;7.472;2023-04-25T12:46:54;15.70;62.10
17887;DHT22;9069;52.044;7.472;2023-04-25T12:49:21;15.60;61.90
17887;DHT22;9069;52.044;7.472;2023-04-25T12:51:48;15.60;61.60
17887;DHT22;9069;52.044;7.472;2023-04-25T12:54:15;15.60;61.80
17887;DHT22;9069;52.044;7.472;2023-04-25T12:56:42;15.60;62.20
17887;DHT22;9069;52.044;7.472;2023-04-25T12:59:09;15.60;62.50
17887;DHT22;9069;52.044;7.472;2023-04-25T13:01:36;15.60;62.70
17887;DHT22;9069;52.044;7.472;2023-04-25T13:04:03;15.60;62.90
17887;DHT22;9069;52.044;7.472;2023-04-25T13:06:30;15.60;62.40
17887;DHT22;9069;52.044;7.472;2023-04-25T13:08:57;15.70;61.50
17887;DHT22;9069;52.044;7.472;2023-04-25T13:11:24;15.70;61.90
17887;DHT22;9069;52.044;7.472;2023-04-25T13:13:51;15.70;62.30
17887;DHT22;9069;52.044;7.472;2023-04-25T13:16:18;15.80;62.90
17887;DHT22;9069;52.044;7.472;2023-04-25T13:18:47;15.70;63.20
17887;DHT22;9069;52.044;7.472;2023-04-25T13:21:14;15.70;63.40
17887;DHT22;9069;52.044;7.472;2023-04-25T13:23:41;15.70;63.50
17887;DHT22;9069;52.044;7.472;2023-04-25T13:26:09;15.80;63.70
17887;DHT22;9069;52.044;7.472;2023-04-25T13:28:36;15.80;63.80
17887;DHT22;9069;52.044;7.472;2023-04-25T13:31:03;15.80;63.80
17887;DHT22;9069;52.044;7.472;2023-04-25T13:33:29;15.80;63.70
17887;DHT22;9069;52.044;7.472;2023-04-25T13:35:57;15.80;63.30
17887;DHT22;9069;52.044;7.472;2023-04-25T13:38:24;15.90;62.70
17887;DHT22;9069;52.044;7.472;2023-04-25T13:40:52;15.90;62.40
17887;DHT22;9069;52.044;7.472;2023-04-25T13:43:20;15.90;62.20
17887;DHT22;9069;52.044;7.472;2023-04-25T13:45:51;15.90;61.90
17887;DHT22;9069;52.044;7.472;2023-04-25T13:48:18;15.90;61.50
17887;DHT22;9069;52.044;7.472;2023-04-25T13:50:46;15.80;61.30
17887;DHT22;9069;52.044;7.472;2023-04-25T13:53:13;15.80;61.10
17887;DHT22;9069;52.044;7.472;2023-04-25T13:55:39;15.80;61.40
17887;DHT22;9069;52.044;7.472;2023-04-25T13:58:06;15.80;61.50
17887;DHT22;9069;52.044;7.472;2023-04-25T14:00:38;15.70;60.90
17887;DHT22;9069;52.044;7.472;2023-04-25T14:03:06;15.70;60.30
17887;DHT22;9069;52.044;7.472;2023-04-25T14:05:35;15.70;60.70
17887;DHT22;9069;52.044;7.472;2023-04-25T14:08:09;15.60;60.00
17887;DHT22;9069;52.044;7.472;2023-04-25T14:10:36;15.50;59.90
17887;DHT22;9069;52.044;7.472;2023-04-25T14:13:05;15.50;60.00
17887;DHT22;9069;52.044;7.472;2023-04-25T14:15:35;15.50;60.20
17887;DHT22;9069;52.044;7.472;2023-04-25T14:18:02;15.40;60.50
17887;DHT22;9069;52.044;7.472;2023-04-25T14:20:29;15.40;60.70
17887;DHT22;9069;52.044;7.472;2023-04-25T14:22:55;15.30;61.00
17887;DHT22;9069;52.044;7.472;2023-04-25T14:25:24;15.30;61.40
17887;DHT22;9069;52.044;7.472;2023-04-25T14:27:51;15.20;61.80
17887;DHT22;9069;52.044;7.472;2023-04-25T14:30:19;15.20;62.00
17887;DHT22;9069;52.044;7.472;2023-04-25T14:32:47;15.10;62.40
17887;DHT22;9069;52.044;7.472;2023-04-25T14:35:14;15.10;62.40
17887;DHT22;9069;52.044;7.472;2023-04-25T14:37:41;15.10;61.90
17887;DHT22;9069;52.044;7.472;2023-04-25T14:40:08;15.00;61.50
17887;DHT22;9069;52.044;7.472;2023-04-25T14:42:37;15.00;61.70
17887;DHT22;9069;52.044;7.472;2023-04-25T14:45:05;15.00;62.10
17887;DHT22;9069;52.044;7.472;2023-04-25T14:47:34;15.00;62.20
17887;DHT22;9069;52.044;7.472;2023-04-25T14:50:01;15.10;62.20
17887;DHT22;9069;52.044;7.472;2023-04-25T14:52:28;15.10;62.10
17887;DHT22;9069;52.044;7.472;2023-04-25T14:54:55;15.10;61.90
17887;DHT22;9069;52.044;7.472;2023-04-25T14:57:22;15.10;61.80
17887;DHT22;9069;52.044;7.472;2023-04-25T14:59:48;15.20;61.60
17887;DHT22;9069;52.044;7.472;2023-04-25T15:02:15;15.20;61.60
17887;DHT22;9069;52.044;7.472;2023-04-25T15:04:42;15.20;61.50
17887;DHT22;9069;52.044;7.472;2023-04-25T15:07:09;15.20;61.50
17887;DHT22;9069;52.044;7.472;2023-04-25T15:09:36;15.30;61.40
17887;DHT22;9069;52.044;7.472;2023-04-25T15:12:03;15.30;61.30
17887;DHT22;9069;52.044;7.472;2023-04-25T15:14:30;15.30;61.10
17887;DHT22;9069;52.044;7.472;2023-04-25T15:16:57;15.30;61.10
17887;DHT22;9069;52.044;7.472;2023-04-25T15:19:23;15.30;61.00
17887;DHT22;9069;52.044;7.472;2023-04-25T15:21:50;15.30;60.80
17887;DHT22;9069;52.044;7.472;2023-04-25T15:24:17;15.30;60.50
17887;DHT22;9069;52.044;7.472;2023-04-25T15:26:44;15.20;60.40
17887;DHT22;9069;52.044;7.472;2023-04-25T15:29:12;15.20;60.50
17887;DHT22;9069;52.044;7.472;2023-04-25T15:31:38;15.20;60.50
17887;DHT22;9069;52.044;7.472;2023-04-25T15:34:05;15.10;60.40
17887;DHT22;9069;52.044;7.472;2023-04-25T15:36:32;15.10;60.20
17887;DHT22;9069;52.044;7.472;2023-04-25T15:38:59;15.10;59.90
17887;DHT22;9069;52.044;7.472;2023-04-25T15:41:26;15.00;59.80
17887;DHT22;9069;52.044;7.472;2023-04-25T15:43:52;15.00;59.80
17887;DHT22;9069;52.044;7.472;2023-04-25T15:46:20;15.00;59.60
17887;DHT22;9069;52.044;7.472;2023-04-25T15:48:49;14.90;59.70
17887;DHT22;9069;52.044;7.472;2023-04-25T15:51:15;14.90;59.90
17887;DHT22;9069;52.044;7.472;2023-04-25T15:53:42;14.90;60.00
17887;DHT22;9069;52.044;7.472;2023-04-25T15:56:09;14.90;60.10
17887;DHT22;9069;52.044;7.472;2023-04-25T15:58:36;14.90;60.20
17887;DHT22;9069;52.044;7.472;2023-04-25T16:01:03;14.90;60.40
17887;DHT22;9069;52.044;7.472;2023-04-25T16:03:31;14.80;60.50
17887;DHT22;9069;52.044;7.472;2023-04-25T16:06:01;14.80;60.30